Time;durP1;ratioP1;P1;durP2;ratioP2;P2;SDS_P1;SDS_P2;PMS_P1;PMS_P2;Temp;Humidity;BMP_temperature;BMP_pressure;BME280_temperature;BME280_humidity;BME280_pressure;Samples;Min_cycle;Max_cycle;Signal;HPM_P1;HPM_P2
2021/04/05 00:02:01;;;;;;;11.25;6.95;;;;;;;5.96;64.90;100082.08;1733320;81;21910;-87
2021/04/05 00:04:28;;;;;;;11.57;6.67;;;;;;;6.00;64.82;100090.48;1733203;82;21536;-86
2021/04/05 00:06:56;;;;;;;18.42;7.80;;;;;;;6.01;64.76;100084.01;1733285;82;21212;-85
2021/04/05 00:09:23;;;;;;;12.68;6.62;;;;;;;6.04;64.70;100066.23;1733284;82;21153;-86
2021/04/05 00:11:51;;;;;;;12.37;7.22;;;;;;;6.06;64.64;100065.85;1733308;82;21170;-85
2021/04/05 00:14:18;;;;;;;11.20;6.45;;;;;;;6.07;64.57;100058.50;1733228;81;22109;-85
2021/04/05 00:16:45;;;;;;;12.13;7.00;;;;;;;6.08;64.48;100052.84;1733216;82;21299;-84
2021/04/05 00:19:12;;;;;;;13.85;7.42;;;;;;;6.08;64.46;100051.14;1733412;82;21169;-86
2021/04/05 00:21:40;;;;;;;14.75;7.28;;;;;;;6.08;64.37;100048.53;1733382;82;21187;-86
2021/04/05 00:24:08;;;;;;;15.40;7.45;;;;;;;6.10;64.37;100039.02;1733271;82;21154;-86
2021/04/05 00:26:35;;;;;;;16.30;7.05;;;;;;;6.11;64.24;100033.36;1733388;82;22790;-87
2021/04/05 00:29:03;;;;;;;13.00;7.35;;;;;;;6.11;64.20;100030.31;1733247;82;21249;-87
2021/04/05 00:31:30;;;;;;;16.50;7.45;;;;;;;6.12;64.20;100020.74;1733583;82;22322;-87
2021/04/05 00:34:00;;;;;;;14.68;7.45;;;;;;;6.12;64.18;100001.14;1733283;82;21221;-86
2021/04/05 00:36:27;;;;;;;18.52;7.90;;;;;;;6.11;64.05;100000.70;1733514;82;21177;-87
2021/04/05 00:38:54;;;;;;;14.65;7.58;;;;;;;6.10;64.00;99989.77;1733449;82;22923;-86
2021/04/05 00:41:21;;;;;;;16.45;7.40;;;;;;;6.07;63.94;99980.12;1733234;82;21545;-87
2021/04/05 00:43:48;;;;;;;13.68;6.87;;;;;;;5.97;63.87;99967.20;1733354;82;21161;-87
2021/04/05 00:46:20;;;;;;;12.33;6.97;;;;;;;5.90;63.88;99952.56;1733365;82;21227;-86
2021/04/05 00:48:47;;;;;;;13.40;7.22;;;;;;;5.84;63.92;99950.65;1733313;82;21650;-86
2021/04/05 00:51:19;;;;;;;16.52;7.25;;;;;;;5.74;63.95;99939.00;1733365;82;22787;-86
2021/04/05 00:53:47;;;;;;;12.20;7.47;;;;;;;5.64;64.01;99918.68;1732270;81;21194;-87
2021/04/05 00:56:17;;;;;;;11.40;6.65;;;;;;;5.55;64.05;99918.39;1733264;82;21216;-87
2021/04/05 00:58:44;;;;;;;14.20;7.08;;;;;;;5.47;64.16;99923.80;1733166;82;21204;-86
2021/04/05 01:01:16;;;;;;;17.57;7.42;;;;;;;5.39;64.33;99915.30;1733384;82;21444;-87
2021/04/05 01:03:44;;;;;;;13.38;7.33;;;;;;;5.35;64.43;99895.55;1733334;82;21887;-86
2021/04/05 01:06:18;;;;;;;13.32;6.25;;;;;;;5.28;64.46;99896.22;1733243;82;21209;-86
2021/04/05 01:08:46;;;;;;;13.30;6.75;;;;;;;5.23;64.64;99898.23;1733170;82;21667;-86
2021/04/05 01:11:15;;;;;;;14.05;7.25;;;;;;;5.21;64.67;99884.69;1733183;81;21154;-86
2021/04/05 01:13:43;;;;;;;11.90;6.72;;;;;;;5.16;64.72;99878.42;1734467;82;21220;-86
2021/04/05 01:16:10;;;;;;;14.58;6.15;;;;;;;5.12;64.82;99869.61;1738917;82;22009;-85
2021/04/05 01:18:39;;;;;;;12.20;6.92;;;;;;;5.10;64.90;99863.88;1738815;82;21181;-84
2021/04/05 01:21:07;;;;;;;13.75;6.78;;;;;;;5.06;64.99;99863.77;1738718;82;21259;-85
2021/04/05 01:23:34;;;;;;;13.58;6.05;;;;;;;5.02;65.08;99858.42;1738634;82;21698;-85
2021/04/05 01:26:02;;;;;;;10.55;6.33;;;;;;;5.01;65.15;99847.11;1738578;82;21225;-87
2021/04/05 01:28:29;;;;;;;13.75;6.33;;;;;;;5.00;65.24;99848.36;1738553;82;22888;-85
2021/04/05 01:30:58;;;;;;;13.95;6.47;;;;;;;5.01;65.39;99831.86;1738639;81;21184;-85
2021/04/05 01:33:32;;;;;;;11.08;6.35;;;;;;;5.05;65.50;99835.94;1738216;81;21157;-84
2021/04/05 01:36:07;;;;;;;10.70;5.97;;;;;;;5.09;65.50;99824.27;1738299;82;21189;-85
2021/04/05 01:38:40;;;;;;;10.93;6.08;;;;;;;5.11;65.48;99816.11;1738681;81;21169;-85
2021/04/05 01:41:20;;;;;;;12.00;5.75;;;;;;;5.16;65.50;99809.29;1737761;82;21976;-85
2021/04/05 01:43:48;;;;;;;12.90;6.05;;;;;;;5.19;65.46;99801.57;1738728;82;21236;-85
2021/04/05 01:46:16;;;;;;;11.25;6.28;;;;;;;5.23;65.47;99790.39;1738657;81;21181;-84
2021/04/05 01:48:44;;;;;;;9.18;5.80;;;;;;;5.27;65.47;99785.72;1738773;82;21247;-84
2021/04/05 01:53:48;;;;;;;11.18;6.17;;;;;;;5.30;65.41;99765.38;1738771;81;21888;-85
2021/04/05 01:56:17;;;;;;;9.15;5.47;;;;;;;5.31;65.43;99760.61;1738758;81;21165;-85
2021/04/05 01:58:47;;;;;;;11.28;5.85;;;;;;;5.31;65.43;99757.61;1738702;81;21185;-86
2021/04/05 02:01:18;;;;;;;11.38;5.45;;;;;;;5.30;65.40;99754.52;1738775;82;21169;-85
2021/04/05 02:03:45;;;;;;;14.20;5.85;;;;;;;5.30;65.41;99757.13;1738739;82;21164;-86
2021/04/05 02:06:19;;;;;;;11.60;5.60;;;;;;;5.28;65.40;99747.50;1738839;81;21908;-86
2021/04/05 02:08:46;;;;;;;10.10;5.75;;;;;;;5.24;65.40;99736.08;1738837;82;21226;-86
2021/04/05 02:11:17;;;;;;;10.98;6.28;;;;;;;5.21;65.45;99738.16;1738844;82;21184;-85
2021/04/05 02:13:47;;;;;;;12.10;5.92;;;;;;;5.20;65.50;99725.06;1738626;81;21307;-84
2021/04/05 02:16:18;;;;;;;9.50;5.33;;;;;;;5.17;65.54;99723.25;1738474;82;21678;-85
2021/04/05 02:18:46;;;;;;;10.75;5.28;;;;;;;5.15;65.60;99718.41;1738211;81;21908;-84
2021/04/05 02:21:14;;;;;;;10.85;5.72;;;;;;;5.10;65.64;99706.95;1738576;81;21619;-84
2021/04/05 02:23:42;;;;;;;10.32;5.78;;;;;;;5.11;65.74;99700.03;1738810;82;21153;-84
2021/04/05 02:26:10;;;;;;;12.73;5.83;;;;;;;5.12;65.80;99696.56;1738812;82;21205;-85
2021/04/05 02:28:43;;;;;;;10.75;5.50;;;;;;;5.14;65.86;99682.72;1710206;82;21145;-85
2021/04/05 02:31:12;;;;;;;14.03;5.72;;;;;;;5.17;65.93;99673.69;1738951;81;21896;-85
2021/04/05 02:33:40;;;;;;;14.80;5.92;;;;;;;5.20;65.95;99672.88;1738825;81;21699;-85
2021/04/05 02:36:09;;;;;;;14.85;5.95;;;;;;;5.22;65.95;99662.98;1738874;82;21600;-85
2021/04/05 02:38:40;;;;;;;12.05;5.80;;;;;;;5.24;65.97;99670.42;1739007;82;21184;-84
2021/04/05 02:41:07;;;;;;;10.85;5.92;;;;;;;5.26;66.01;99660.04;1738742;82;21181;-85
2021/04/05 02:43:35;;;;;;;10.15;6.20;;;;;;;5.31;66.00;99657.15;1738750;82;21907;-84
2021/04/05 02:46:04;;;;;;;11.68;6.33;;;;;;;5.35;66.06;99656.78;1738595;81;21650;-84
2021/04/05 02:48:34;;;;;;;12.55;6.50;;;;;;;5.35;66.05;99643.73;1738714;81;21256;-85
2021/04/05 02:51:04;;;;;;;12.90;6.00;;;;;;;5.38;66.02;99634.70;1738837;82;21165;-84
2021/04/05 02:53:31;;;;;;;12.93;6.40;;;;;;;5.40;66.06;99637.81;1738521;82;21149;-84
2021/04/05 02:56:06;;;;;;;12.55;7.15;;;;;;;5.42;66.05;99633.55;1738633;82;21940;-84
2021/04/05 02:58:34;;;;;;;12.37;6.85;;;;;;;5.44;66.04;99617.90;1738563;81;21628;-85
2021/04/05 03:01:01;;;;;;;10.03;7.22;;;;;;;5.45;66.03;99616.64;1738574;82;21628;-85
2021/04/05 03:03:29;;;;;;;11.63;6.60;;;;;;;5.45;66.06;99611.42;1738588;82;21193;-86
2021/04/05 03:05:56;;;;;;;15.10;6.35;;;;;;;5.44;66.09;99606.16;1738679;82;21169;-85
2021/04/05 03:08:26;;;;;;;10.40;7.05;;;;;;;5.41;66.08;99609.58;1738822;82;22833;-86
2021/04/05 03:10:56;;;;;;;15.45;6.70;;;;;;;5.37;66.11;99594.69;1738234;82;21722;-86
2021/04/05 03:13:26;;;;;;;13.90;6.80;;;;;;;5.35;66.18;99596.77;1738831;81;21205;-85
2021/04/05 03:18:27;;;;;;;11.83;6.80;;;;;;;5.36;66.31;99569.84;1889094;75;22692;-86
2021/04/05 03:20:55;;;;;;;13.72;7.67;;;;;;;5.30;66.39;99567.95;1857394;77;21192;-87
2021/04/05 03:23:22;;;;;;;19.25;7.67;;;;;;;5.30;66.39;99556.65;1857419;76;21940;-83
2021/04/05 03:25:49;;;;;;;11.83;7.37;;;;;;;5.28;66.43;99546.59;1857261;77;21130;-83
2021/04/05 03:28:17;;;;;;;12.88;7.78;;;;;;;5.26;66.50;99541.33;1857367;77;21500;-84
2021/04/05 03:30:52;;;;;;;17.35;8.50;;;;;;;5.23;66.56;99538.20;1857261;77;21119;-84
2021/04/05 03:33:44;;;;;;;20.68;8.40;;;;;;;5.21;66.61;99537.70;1857242;77;21576;-84
2021/04/05 03:36:37;;;;;;;16.20;8.20;;;;;;;5.18;66.66;99529.39;1857401;77;21741;-85
2021/04/05 03:39:05;;;;;;;12.20;8.58;;;;;;;5.17;66.74;99524.12;1851223;77;21199;-85
2021/04/05 03:41:43;;;;;;;15.13;8.85;;;;;;;5.16;66.81;99528.47;1857358;77;21111;-84
2021/04/05 03:44:27;;;;;;;13.53;8.45;;;;;;;5.15;66.87;99517.98;1857013;76;21576;-84
2021/04/05 03:46:59;;;;;;;;;;;;;;;5.15;66.95;99514.95;1859605;77;21131;-86
2021/04/05 03:49:40;;;;;;;16.50;9.00;;;;;;;5.16;67.03;99493.25;1856935;77;22787;-86
2021/04/05 03:52:20;;;;;;;18.62;9.73;;;;;;;5.16;67.03;99497.56;1857597;77;21190;-87
2021/04/05 03:54:51;;;;;;;18.45;8.88;;;;;;;5.15;67.06;99491.47;1857610;77;21139;-86
2021/04/05 03:57:22;;;;;;;21.35;9.95;;;;;;;5.12;67.08;99469.64;1857463;77;21672;-86
2021/04/05 03:59:55;;;;;;;18.57;9.93;;;;;;;5.09;67.14;99478.27;1857536;77;21150;-85
2021/04/05 04:02:36;;;;;;;15.98;9.00;;;;;;;5.05;67.19;99484.26;1857645;77;21870;-83
2021/04/05 04:05:29;;;;;;;14.40;9.15;;;;;;;5.05;67.29;99473.83;1857438;77;21119;-83
2021/04/05 04:07:36;;;;;;;19.37;9.50;;;;;;;5.04;67.33;99459.87;1842770;77;21251;-84
2021/04/05 04:10:11;;;;;;;15.18;8.65;;;;;;;5.04;67.33;99466.40;1857348;77;21554;-86
2021/04/05 04:12:39;;;;;;;17.40;8.50;;;;;;;5.06;67.41;99453.41;1857506;77;21106;-85
2021/04/05 04:15:08;;;;;;;17.48;9.90;;;;;;;5.06;67.44;99440.36;1857420;77;23043;-85
2021/04/05 04:17:35;;;;;;;18.50;9.95;;;;;;;5.07;67.45;99438.23;1858821;77;21412;-84
2021/04/05 04:20:05;;;;;;;21.10;9.63;;;;;;;5.08;67.44;99434.77;1834718;77;21099;-85
2021/04/05 04:22:33;;;;;;;19.35;9.50;;;;;;;5.09;67.47;99426.50;1860434;77;21123;-85
2021/04/05 04:25:00;;;;;;;20.37;9.43;;;;;;;5.08;67.48;99420.84;1860707;77;21130;-84
2021/04/05 04:27:28;;;;;;;17.17;9.50;;;;;;;5.04;67.49;99412.93;1860650;77;21869;-85
2021/04/05 04:29:56;;;;;;;16.85;8.53;;;;;;;5.04;67.53;99401.63;1860142;77;21576;-85
2021/04/05 04:32:23;;;;;;;23.02;9.98;;;;;;;5.02;67.56;99402.89;1860233;77;21119;-85
2021/04/05 04:34:51;;;;;;;17.60;9.95;;;;;;;5.02;67.63;99400.71;1860030;76;21159;-85
2021/04/05 04:37:19;;;;;;;12.00;8.78;;;;;;;5.02;67.71;99391.58;1860332;76;21201;-85
2021/04/05 04:39:47;;;;;;;17.95;8.93;;;;;;;5.05;67.72;99372.11;1860168;77;21931;-85
2021/04/05 04:42:14;;;;;;;21.55;10.95;;;;;;;5.04;67.75;99367.30;1859751;77;21183;-85
2021/04/05 04:44:42;;;;;;;15.30;9.20;;;;;;;5.06;67.79;99357.78;1859802;77;21190;-85
2021/04/05 04:47:11;;;;;;;13.43;8.93;;;;;;;5.10;67.85;99359.17;1859745;77;21625;-85
2021/04/05 04:49:39;;;;;;;18.70;8.65;;;;;;;5.11;67.75;99346.17;1834120;77;21564;-86
2021/04/05 04:52:08;;;;;;;18.65;9.33;;;;;;;5.08;67.76;99333.48;1859883;77;21884;-86
2021/04/05 04:54:36;;;;;;;23.65;10.48;;;;;;;5.06;67.80;99336.91;1860157;77;21498;-85
2021/04/05 04:57:04;;;;;;;16.02;8.60;;;;;;;5.05;67.85;99342.99;1859899;77;21561;-86
2021/04/05 04:59:33;;;;;;;21.55;9.48;;;;;;;5.05;67.88;99336.91;1859987;77;21150;-85
2021/04/05 05:02:01;;;;;;;16.70;9.18;;;;;;;5.04;67.92;99324.69;1859802;77;21163;-85
2021/04/05 05:04:28;;;;;;;20.75;10.15;;;;;;;5.06;67.96;99320.39;1859987;77;21879;-84
2021/04/05 05:06:58;;;;;;;16.42;9.23;;;;;;;5.08;67.92;99316.52;1859710;76;21597;-84
2021/04/05 05:09:26;;;;;;;20.45;9.75;;;;;;;5.09;68.00;99305.23;1859962;77;21127;-85
2021/04/05 05:11:53;;;;;;;19.32;9.55;;;;;;;5.11;68.00;99291.40;1859802;77;21145;-85
2021/04/05 05:14:20;;;;;;;16.05;9.48;;;;;;;5.14;68.01;99270.58;1860068;76;21151;-86
2021/04/05 05:16:48;;;;;;;18.85;9.93;;;;;;;5.17;68.01;99255.45;1859716;75;22073;-85
2021/04/05 05:19:15;;;;;;;17.92;9.75;;;;;;;5.18;68.02;99245.45;1856527;76;21178;-85
2021/04/05 05:21:53;;;;;;;19.02;10.80;;;;;;;5.20;68.00;99259.01;1856606;77;21103;-85
2021/04/05 05:24:22;;;;;;;16.25;9.20;;;;;;;5.24;67.97;99250.40;1856651;77;21158;-85
2021/04/05 05:26:49;;;;;;;27.58;9.93;;;;;;;5.29;67.90;99234.83;1856426;77;21167;-85
2021/04/05 05:29:18;;;;;;;17.77;9.43;;;;;;;5.32;67.82;99233.60;1856473;77;21929;-85
2021/04/05 05:31:45;;;;;;;22.13;10.78;;;;;;;5.36;67.86;99214.55;1850261;77;21211;-84
2021/04/05 05:34:18;;;;;;;17.48;10.08;;;;;;;5.41;67.86;99200.31;1822881;78;21664;-85
2021/04/05 05:36:49;;;;;;;19.75;10.68;;;;;;;5.48;67.81;99202.61;1823055;78;21164;-84
2021/04/05 05:39:18;;;;;;;16.62;9.18;;;;;;;5.52;67.70;99175.31;1822928;78;21183;-83
2021/04/05 05:42:14;;;;;;;18.80;11.03;;;;;;;5.53;67.61;99195.33;1822597;78;22935;-84
2021/04/05 05:44:47;;;;;;;23.77;11.90;;;;;;;5.52;67.56;99176.63;1822974;78;21186;-83
2021/04/05 05:47:51;;;;;;;;;;;;;;;5.52;67.54;99150.92;1819770;77;21557;-87
2021/04/05 05:50:32;;;;;;;21.68;11.55;;;;;;;5.49;67.54;99140.02;1822124;78;20654;-83
2021/04/05 05:53:13;;;;;;;23.22;11.85;;;;;;;5.47;67.50;99139.54;1853026;77;21091;-83
2021/04/05 05:56:09;;;;;;;19.65;11.00;;;;;;;5.43;67.53;99139.91;1842754;77;22782;-84
2021/04/05 05:58:49;;;;;;;18.55;10.90;;;;;;;5.42;67.54;99148.16;1856358;76;21135;-86
2021/04/05 06:01:43;;;;;;;24.02;13.75;;;;;;;5.43;67.64;99120.33;1856252;77;21184;-86
2021/04/05 06:04:36;;;;;;;19.20;11.80;;;;;;;5.46;67.67;99115.15;1856534;77;21146;-86
2021/04/05 06:07:58;;;;;;;25.37;13.58;;;;;;;5.50;67.72;99119.60;1856337;77;21550;-86
2021/04/05 06:10:57;;;;;;;20.72;12.93;;;;;;;5.55;67.60;99120.55;1855766;76;21874;-83
2021/04/05 06:17:05;;;;;;;22.20;12.80;;;;;;;5.73;67.65;99136.12;1839093;77;22824;-86
2021/04/05 06:19:56;;;;;;;24.43;12.82;;;;;;;5.85;67.73;99128.05;1866582;76;22717;-86
2021/04/05 06:22:58;;;;;;;22.48;12.95;;;;;;;5.88;67.52;99125.95;1819740;78;21191;-86
2021/04/05 06:25:47;;;;;;;24.55;13.25;;;;;;;5.94;67.45;99126.48;1819793;78;21876;-85
2021/04/05 06:28:55;;;;;;;21.97;13.03;;;;;;;5.97;67.25;99119.61;1819631;78;21421;-83
2021/04/05 06:31:52;;;;;;;19.82;12.78;;;;;;;5.99;67.29;99123.13;1819192;78;21163;-85
2021/04/05 06:34:41;;;;;;;23.57;15.30;;;;;;;6.07;67.25;99112.80;1819772;78;21180;-85
2021/04/05 06:37:16;;;;;;;20.32;12.88;;;;;;;6.14;67.13;99102.05;1819330;78;21120;-85
2021/04/05 06:39:50;;;;;;;24.55;13.83;;;;;;;6.19;67.11;99082.07;1818989;78;21865;-85
2021/04/05 06:42:56;;;;;;;19.57;12.88;;;;;;;6.22;66.89;99088.66;1819761;78;21151;-85
2021/04/05 06:45:48;;;;;;;22.95;14.20;;;;;;;6.18;66.83;99078.59;1819588;78;21196;-85
2021/04/05 06:48:39;;;;;;;23.30;14.43;;;;;;;6.28;66.97;99068.28;1819653;78;21170;-85
2021/04/05 06:52:05;;;;;;;19.30;13.08;;;;;;;6.45;66.86;99071.14;1815071;78;21203;-85
2021/04/05 06:55:14;;;;;;;25.23;14.43;;;;;;;6.53;66.72;99073.02;1819793;78;22090;-84
2021/04/05 06:58:19;;;;;;;22.35;13.75;;;;;;;6.62;66.57;99046.11;1819289;78;21653;-85
2021/04/05 07:01:19;;;;;;;24.15;14.47;;;;;;;6.67;66.49;99033.98;1780805;80;21164;-85
2021/04/05 07:04:16;;;;;;;26.07;14.10;;;;;;;6.73;66.27;99026.21;1780863;80;21179;-88
2021/04/05 07:07:17;;;;;;;25.12;14.58;;;;;;;6.73;66.07;99034.05;1780962;80;21207;-81
2021/04/05 07:09:55;;;;;;;23.32;14.38;;;;;;;6.71;66.10;99030.98;1780272;79;22417;-78
2021/04/05 07:13:06;;;;;;;22.10;14.90;;;;;;;6.59;65.94;99010.80;1780134;80;21198;-80
2021/04/05 07:15:50;;;;;;;24.55;15.38;;;;;;;6.54;66.08;99003.32;1775210;80;21200;-79
2021/04/05 07:19:02;;;;;;;25.75;13.72;;;;;;;6.57;66.15;99008.16;1775898;80;21155;-79
2021/04/05 07:24:39;;;;;;;23.35;13.80;;;;;;;6.94;66.14;98978.95;1888538;76;22440;-80
2021/04/05 07:27:14;;;;;;;19.55;13.53;;;;;;;6.99;66.10;98971.59;1856769;77;21181;-79
2021/04/05 07:30:13;;;;;;;21.90;14.68;;;;;;;7.16;65.99;98964.36;1857013;76;21882;-87
2021/04/05 07:33:39;;;;;;;21.17;13.43;;;;;;;7.32;65.77;98968.89;1857277;77;21202;-88
2021/04/05 07:36:33;;;;;;;26.40;15.65;;;;;;;7.48;65.61;98971.64;1787374;80;21245;-86
2021/04/05 07:42:40;;;;;;;23.50;16.30;;;;;;;7.76;64.93;98943.94;1888524;76;23428;-86
2021/04/05 07:45:32;;;;;;;28.30;20.43;;;;;;;7.80;64.74;98949.63;1859292;77;21182;-86
2021/04/05 07:48:12;;;;;;;26.05;19.10;;;;;;;7.90;64.62;98944.02;1859337;76;21951;-85
2021/04/05 07:51:18;;;;;;;21.85;15.58;;;;;;;8.01;64.53;98949.33;1859408;77;21186;-86
2021/04/05 07:54:17;;;;;;;19.17;14.45;;;;;;;8.04;64.15;98941.50;1859692;77;21134;-84
2021/04/05 07:57:13;;;;;;;21.33;14.33;;;;;;;7.99;64.04;98940.15;1832063;77;21139;-87
2021/04/05 07:59:51;;;;;;;20.23;14.47;;;;;;;7.93;63.84;98936.19;1859150;77;21569;-86
2021/04/05 08:02:39;;;;;;;19.20;13.55;;;;;;;7.90;63.93;98943.61;1859100;77;21955;-87
2021/04/05 08:05:41;;;;;;;18.52;14.07;;;;;;;7.89;63.93;98938.35;1859290;76;21876;-86
2021/04/05 08:08:52;;;;;;;18.35;13.05;;;;;;;7.94;63.86;98956.30;1859418;77;21613;-94
2021/04/05 08:11:51;;;;;;;18.10;12.68;;;;;;;7.94;63.83;98946.69;1859653;77;21174;-88
2021/04/05 08:14:53;;;;;;;17.77;12.60;;;;;;;7.97;63.73;98948.44;1853886;77;21119;-85
2021/04/05 08:17:49;;;;;;;24.25;14.05;;;;;;;7.90;63.48;98948.84;1859554;77;21872;-89
2021/04/05 08:20:31;;;;;;;23.05;14.55;;;;;;;7.94;63.65;98934.89;1859254;76;21151;-83
2021/04/05 08:23:27;;;;;;;22.48;13.25;;;;;;;8.07;63.61;98937.57;1859562;77;21099;-86
2021/04/05 08:26:00;;;;;;;18.98;13.10;;;;;;;8.16;63.49;98935.00;1858716;77;21146;-88
2021/04/05 08:28:50;;;;;;;17.40;12.98;;;;;;;8.16;63.22;98929.77;1859376;77;21589;-86
2021/04/05 08:31:48;;;;;;;18.95;13.50;;;;;;;8.22;63.34;98926.30;1859528;77;21877;-86
2021/04/05 08:34:53;;;;;;;17.52;12.65;;;;;;;8.41;63.38;98911.53;1829644;77;21671;-86
2021/04/05 08:37:46;;;;;;;;;;;;;;;8.38;62.79;98917.20;1862314;77;21704;-86
2021/04/05 08:40:33;;;;;;;18.30;14.65;;;;;;;8.31;62.75;98903.63;1859273;77;21298;-86
2021/04/05 08:43:25;;;;;;;21.45;12.82;;;;;;;8.24;62.65;98913.66;1858694;76;21091;-86
2021/04/05 08:46:09;;;;;;;20.90;14.93;;;;;;;8.06;62.57;98918.36;1859816;77;21881;-87
2021/04/05 08:48:38;;;;;;;20.65;13.32;;;;;;;7.92;62.73;98902.58;1859836;77;21130;-89
2021/04/05 08:51:36;;;;;;;23.12;14.55;;;;;;;7.81;62.77;98896.80;1826733;77;21218;-87
2021/04/05 08:54:05;;;;;;;21.55;14.03;;;;;;;7.77;63.13;98899.83;1858630;77;21245;-92
2021/04/05 08:56:46;;;;;;;21.68;14.55;;;;;;;7.78;63.39;98905.09;1858477;77;21529;-83
2021/04/05 08:59:24;;;;;;;17.90;13.20;;;;;;;7.79;63.40;98920.39;1857475;77;21872;-82
2021/04/05 09:02:24;;;;;;;23.83;15.83;;;;;;;7.72;63.40;98910.73;1850132;77;21185;-83
2021/04/05 09:04:58;;;;;;;20.70;13.88;;;;;;;7.63;63.51;98902.38;1850071;77;21134;-80
2021/04/05 09:07:59;;;;;;;25.10;13.72;;;;;;;7.66;64.22;98896.27;1850536;77;21134;-81
2021/04/05 09:10:52;;;;;;;21.87;14.30;;;;;;;7.93;64.53;98906.06;1850306;77;21587;-81
2021/04/05 09:13:22;;;;;;;20.77;15.17;;;;;;;8.22;64.39;98890.51;1850684;77;22123;-83
2021/04/05 09:16:14;;;;;;;17.62;14.00;;;;;;;8.55;64.49;98900.70;1850273;77;21608;-81
2021/04/05 09:19:17;;;;;;;17.92;13.90;;;;;;;8.70;64.11;98898.12;1846307;77;21209;-84
2021/04/05 09:22:08;;;;;;;18.90;14.25;;;;;;;9.02;64.24;98908.25;1851156;75;21675;-93
2021/04/05 09:25:29;;;;;;;23.50;15.83;;;;;;;9.27;63.69;98906.52;1848201;77;21164;-86
2021/04/05 09:28:34;;;;;;;22.17;15.63;;;;;;;9.26;63.04;98906.10;1849921;76;21891;-87
2021/04/05 09:31:18;;;;;;;21.95;14.07;;;;;;;8.91;62.81;98893.80;1883979;76;21140;-86
2021/04/05 09:34:15;;;;;;;22.00;15.80;;;;;;;8.67;63.58;98915.18;1772128;76;21154;-86
2021/04/05 09:37:28;;;;;;;19.00;15.25;;;;;;;8.56;63.68;98907.27;1793211;78;21182;-86
2021/04/05 09:40:48;;;;;;;23.90;15.28;;;;;;;8.52;64.26;98904.20;1825257;78;21178;-86
2021/04/05 09:43:46;;;;;;;21.05;15.03;;;;;;;8.51;64.08;98913.37;1829227;76;21957;-86
2021/04/05 09:46:52;;;;;;;24.35;16.17;;;;;;;8.48;64.24;98909.41;1859220;76;21177;-86
2021/04/05 09:50:00;;;;;;;21.70;15.72;;;;;;;8.47;64.44;98916.41;1841373;77;21204;-87
2021/04/05 09:52:47;;;;;;;20.25;15.28;;;;;;;8.40;64.42;98920.28;1804645;79;21137;-86
2021/04/05 09:55:19;;;;;;;21.02;14.33;;;;;;;8.26;64.53;98926.34;1823076;77;21210;-86
2021/04/05 10:00:54;;;;;;;22.70;15.65;;;;;;;8.18;65.15;98924.09;1811137;78;22771;-83
2021/04/05 10:03:22;;;;;;;22.77;15.85;;;;;;;8.12;65.32;98929.31;1796415;79;21498;-84
2021/04/05 10:05:50;;;;;;;21.12;16.30;;;;;;;8.13;65.58;98926.70;1797145;79;22883;-85
2021/04/05 10:08:27;;;;;;;20.05;15.50;;;;;;;8.15;65.63;98917.55;1797007;79;21214;-84
2021/04/05 10:10:55;;;;;;;19.82;13.83;;;;;;;8.18;65.77;98923.69;1797018;79;21357;-86
2021/04/05 10:13:24;;;;;;;21.68;16.12;;;;;;;8.18;65.70;98918.85;1797013;79;21180;-85
2021/04/05 10:15:52;;;;;;;21.70;14.60;;;;;;;8.13;65.80;98919.28;1797053;79;21148;-86
2021/04/05 10:18:22;;;;;;;19.52;14.73;;;;;;;8.06;66.10;98917.50;1797288;79;22925;-85
2021/04/05 10:20:52;;;;;;;17.45;14.40;;;;;;;8.06;66.23;98909.19;1782738;79;21216;-86
2021/04/05 10:23:28;;;;;;;20.35;15.05;;;;;;;8.09;66.47;98896.53;1769861;79;21203;-85
2021/04/05 10:26:01;;;;;;;16.73;13.85;;;;;;;8.21;66.47;98912.33;1765974;81;21158;-88
2021/04/05 10:28:31;;;;;;;20.68;14.50;;;;;;;8.35;66.43;98903.20;1769101;79;22488;-89
2021/04/05 10:31:04;;;;;;;18.82;14.43;;;;;;;8.47;66.32;98894.56;1776775;79;21790;-87
2021/04/05 10:33:38;;;;;;;17.48;14.38;;;;;;;8.56;66.45;98895.47;1770117;79;21558;-85
2021/04/05 10:36:08;;;;;;;18.95;15.08;;;;;;;8.72;66.41;98883.26;1763095;81;21172;-87
2021/04/05 10:38:38;;;;;;;19.23;12.70;;;;;;;8.68;65.80;98886.75;1730182;81;21729;-89
2021/04/05 10:41:06;;;;;;;17.87;14.05;;;;;;;8.59;66.07;98891.09;1726971;81;21160;-87
2021/04/05 10:43:43;;;;;;;15.83;13.53;;;;;;;8.55;65.70;98890.21;1757134;81;22798;-87
2021/04/05 10:46:32;;;;;;;18.15;13.93;;;;;;;8.41;65.70;98882.69;1757201;81;21225;-84
2021/04/05 10:49:06;;;;;;;17.45;13.03;;;;;;;8.30;65.85;98875.67;1757140;81;21165;-86
2021/04/05 10:51:43;;;;;;;17.85;12.95;;;;;;;8.18;65.92;98876.92;1753300;81;21186;-89
2021/04/05 10:54:18;;;;;;;17.50;12.15;;;;;;;8.12;65.98;98879.52;1774298;80;21591;-86
2021/04/05 10:56:50;;;;;;;16.77;11.90;;;;;;;8.05;66.25;98877.33;1756805;81;21961;-87
2021/04/05 10:59:38;;;;;;;19.48;13.18;;;;;;;8.04;66.31;98887.34;1716671;83;21212;-82
2021/04/05 11:02:43;;;;;;;14.93;11.83;;;;;;;7.92;66.25;98886.86;1728848;82;21193;-88
2021/04/05 11:05:12;;;;;;;16.37;12.20;;;;;;;7.80;66.32;98888.08;1734197;82;21179;-85
2021/04/05 11:10:21;;;;;;;16.32;12.07;;;;;;;7.67;66.80;98892.36;1888828;76;22683;-82
2021/04/05 11:12:56;;;;;;;15.15;11.65;;;;;;;7.58;66.51;98889.67;1856962;77;21180;-82
2021/04/05 11:15:26;;;;;;;15.10;11.45;;;;;;;7.51;66.71;98896.63;1855016;77;21961;-80
2021/04/05 11:17:59;;;;;;;14.15;10.15;;;;;;;7.49;66.77;98890.91;1856727;77;21185;-82
2021/04/05 11:20:31;;;;;;;14.05;10.23;;;;;;;7.42;66.57;98886.08;1856684;76;21123;-82
2021/04/05 11:23:15;;;;;;;13.72;10.45;;;;;;;7.29;66.58;98892.95;1856834;77;21159;-82
2021/04/05 11:25:45;;;;;;;13.90;10.13;;;;;;;7.24;66.80;98882.87;1857018;77;21648;-82
2021/04/05 11:28:28;;;;;;;13.83;10.85;;;;;;;7.20;66.89;98887.64;1856666;77;22050;-82
2021/04/05 11:31:15;;;;;;;12.70;9.90;;;;;;;7.17;66.85;98887.60;1856921;77;21708;-82
2021/04/05 11:33:55;;;;;;;13.25;10.15;;;;;;;7.16;67.08;98896.33;1826086;77;21130;-81
2021/04/05 11:36:26;;;;;;;14.73;10.15;;;;;;;7.17;67.31;98889.81;1852869;77;21644;-81
2021/04/05 11:38:53;;;;;;;12.98;10.38;;;;;;;7.17;67.14;98893.73;1826218;77;21135;-81
2021/04/05 11:41:27;;;;;;;12.23;9.98;;;;;;;7.17;67.12;98887.60;1856690;77;22889;-81
2021/04/05 11:43:55;;;;;;;;;;;;;;;7.18;67.09;98891.55;1859586;77;21126;-81
2021/04/05 11:46:22;;;;;;;14.00;10.15;;;;;;;7.21;67.08;98892.02;1856619;77;20616;-81
2021/04/05 11:49:03;;;;;;;15.45;10.48;;;;;;;7.25;67.12;98890.31;1790186;77;21173;-81
2021/04/05 11:51:45;;;;;;;13.20;9.90;;;;;;;7.28;67.12;98888.60;1856681;76;21087;-81
2021/04/05 11:54:39;;;;;;;;;;;;;;;;;;;;;
2021/04/05 11:57:13;;;;;;;11.22;8.90;;;;;;;7.31;66.75;98893.84;1810049;77;23624;-80
2021/04/05 11:59:44;;;;;;;11.75;9.60;;;;;;;7.24;66.66;98895.09;1796344;79;21155;-80
2021/04/05 12:02:31;;;;;;;12.40;9.95;;;;;;;7.19;66.83;98904.22;1796212;79;21537;-82
2021/04/05 12:05:09;;;;;;;12.45;10.00;;;;;;;7.18;66.94;98916.41;1796270;79;21234;-80
2021/04/05 12:07:39;;;;;;;11.33;8.28;;;;;;;7.13;67.08;98920.73;1796302;79;21133;-80
2021/04/05 12:10:10;;;;;;;12.37;9.08;;;;;;;7.03;66.89;98921.50;1796097;79;21207;-80
2021/04/05 12:12:44;;;;;;;14.55;10.28;;;;;;;6.93;67.14;98911.82;1761998;79;21200;-80
2021/04/05 12:15:17;;;;;;;14.18;10.88;;;;;;;6.95;67.52;98910.96;1796432;79;22884;-81
2021/04/05 12:17:49;;;;;;;12.75;10.15;;;;;;;7.06;67.85;98918.02;1796234;79;21650;-81
2021/04/05 12:20:17;;;;;;;13.72;10.00;;;;;;;7.09;67.89;98915.45;1795826;79;21639;-81
2021/04/05 12:22:44;;;;;;;11.95;9.80;;;;;;;7.17;68.23;98901.98;1788862;79;21580;-81
2021/04/05 12:25:12;;;;;;;11.83;9.48;;;;;;;7.37;68.41;98903.04;1796287;79;21246;-80
2021/04/05 12:27:40;;;;;;;12.15;9.00;;;;;;;7.55;68.28;98901.01;1796328;79;21876;-81
2021/04/05 12:30:24;;;;;;;11.50;8.85;;;;;;;7.63;68.07;98895.83;1796207;79;21626;-81
2021/04/05 12:32:40;;;;;;;12.10;8.23;;;;;;;7.71;67.71;98881.03;1793617;79;21159;-81
2021/04/05 12:35:11;;;;;;;10.85;7.60;;;;;;;7.77;67.78;98884.12;1762446;79;21658;-81
2021/04/05 12:37:38;;;;;;;10.90;7.90;;;;;;;7.78;67.50;98898.54;1796427;79;21116;-81
2021/04/05 12:40:06;;;;;;;12.75;9.60;;;;;;;7.78;67.44;98901.60;1796423;79;21945;-81
2021/04/05 12:42:36;;;;;;;12.43;8.65;;;;;;;7.78;67.61;98902.91;1796302;79;21100;-80